Terminal Aerodrome Forecast
Issued by NWS

Home | Current Version | Previous Version | Text Only | Print | Product List | Glossary On
Versions: 1 2 3 4 5 6 7 8 9 10 11 12 13 14 15 16 17 18 19 20 21 22 23 24 25 26 27 28 29 30 31
028
FTUS41 KOKX 281531 AAB
TAFGON
TAF AMD
KGON 281531Z 2816/2912 09005KT 3SM -DZ BR OVC003
     FM282100 07004KT 1 1/2SM -RA BR OVC006
     FM290200 03003KT 2SM -RA BR OVC007
     FM290400 02002KT 3SM -RA BR OVC007
     FM290800 36004KT 5SM BR OVC015
     FM291100 35008KT P6SM BKN030=

USA.gov is the U.S. government's official web portal to all federal, state and local government web resources and services.